sensor_id;sensor_type;location;lat;lon;timestamp;P1;durP1;ratioP1;P2;durP2;ratioP2
58685;SDS011;44465;53.206;-6.106;2023-06-14T00:00:38;5.18;;;4.20;;
58685;SDS011;44465;53.206;-6.106;2023-06-14T00:03:07;5.70;;;4.10;;
58685;SDS011;44465;53.206;-6.106;2023-06-14T00:05:37;4.88;;;4.30;;
58685;SDS011;44465;53.206;-6.106;2023-06-14T00:08:11;6.10;;;3.95;;
58685;SDS011;44465;53.206;-6.106;2023-06-14T00:10:36;6.72;;;4.47;;
58685;SDS011;44465;53.206;-6.106;2023-06-14T00:13:03;6.43;;;4.60;;
58685;SDS011;44465;53.206;-6.106;2023-06-14T00:15:30;4.57;;;3.97;;
58685;SDS011;44465;53.206;-6.106;2023-06-14T00:17:56;4.38;;;3.85;;
58685;SDS011;44465;53.206;-6.106;2023-06-14T00:20:28;5.43;;;4.18;;
58685;SDS011;44465;53.206;-6.106;2023-06-14T00:22:59;4.57;;;4.18;;
58685;SDS011;44465;53.206;-6.106;2023-06-14T00:25:25;4.53;;;4.13;;
58685;SDS011;44465;53.206;-6.106;2023-06-14T00:27:51;4.68;;;3.97;;
58685;SDS011;44465;53.206;-6.106;2023-06-14T00:30:16;5.93;;;4.50;;
58685;SDS011;44465;53.206;-6.106;2023-06-14T00:32:43;4.68;;;4.25;;
58685;SDS011;44465;53.206;-6.106;2023-06-14T00:35:09;6.00;;;4.35;;
58685;SDS011;44465;53.206;-6.106;2023-06-14T00:37:35;5.00;;;4.40;;
58685;SDS011;44465;53.206;-6.106;2023-06-14T00:40:01;5.07;;;4.18;;
58685;SDS011;44465;53.206;-6.106;2023-06-14T00:42:29;5.03;;;4.45;;
58685;SDS011;44465;53.206;-6.106;2023-06-14T00:44:55;7.07;;;4.43;;
58685;SDS011;44465;53.206;-6.106;2023-06-14T00:47:21;4.30;;;3.90;;
58685;SDS011;44465;53.206;-6.106;2023-06-14T00:49:48;8.05;;;4.80;;
58685;SDS011;44465;53.206;-6.106;2023-06-14T00:52:16;5.43;;;4.10;;
58685;SDS011;44465;53.206;-6.106;2023-06-14T00:54:43;5.47;;;4.57;;
58685;SDS011;44465;53.206;-6.106;2023-06-14T00:57:12;6.05;;;4.47;;
58685;SDS011;44465;53.206;-6.106;2023-06-14T00:59:46;4.85;;;4.40;;
58685;SDS011;44465;53.206;-6.106;2023-06-14T01:02:13;5.10;;;4.28;;
58685;SDS011;44465;53.206;-6.106;2023-06-14T01:04:45;4.82;;;4.18;;
58685;SDS011;44465;53.206;-6.106;2023-06-14T01:14:59;4.88;;;4.03;;
58685;SDS011;44465;53.206;-6.106;2023-06-14T01:17:26;4.68;;;4.20;;
58685;SDS011;44465;53.206;-6.106;2023-06-14T01:19:52;4.47;;;4.07;;
58685;SDS011;44465;53.206;-6.106;2023-06-14T01:22:24;4.65;;;4.25;;
58685;SDS011;44465;53.206;-6.106;2023-06-14T01:24:54;5.20;;;4.43;;
58685;SDS011;44465;53.206;-6.106;2023-06-14T01:27:23;4.60;;;3.95;;
58685;SDS011;44465;53.206;-6.106;2023-06-14T01:29:53;4.22;;;3.83;;
58685;SDS011;44465;53.206;-6.106;2023-06-14T01:32:21;5.22;;;4.53;;
58685;SDS011;44465;53.206;-6.106;2023-06-14T01:34:50;4.93;;;4.10;;
58685;SDS011;44465;53.206;-6.106;2023-06-14T01:37:16;5.10;;;4.40;;
58685;SDS011;44465;53.206;-6.106;2023-06-14T01:39:43;4.63;;;4.10;;
58685;SDS011;44465;53.206;-6.106;2023-06-14T01:42:10;4.57;;;4.07;;
58685;SDS011;44465;53.206;-6.106;2023-06-14T01:44:40;4.55;;;4.15;;
58685;SDS011;44465;53.206;-6.106;2023-06-14T01:47:08;4.63;;;4.22;;
58685;SDS011;44465;53.206;-6.106;2023-06-14T01:49:34;5.35;;;4.10;;
58685;SDS011;44465;53.206;-6.106;2023-06-14T01:52:00;4.57;;;4.03;;
58685;SDS011;44465;53.206;-6.106;2023-06-14T01:54:26;4.43;;;4.03;;
58685;SDS011;44465;53.206;-6.106;2023-06-14T01:56:52;4.95;;;4.25;;
58685;SDS011;44465;53.206;-6.106;2023-06-14T01:59:18;4.93;;;4.47;;
58685;SDS011;44465;53.206;-6.106;2023-06-14T02:01:43;5.30;;;4.28;;
58685;SDS011;44465;53.206;-6.106;2023-06-14T02:06:36;5.38;;;4.20;;
58685;SDS011;44465;53.206;-6.106;2023-06-14T02:09:02;4.60;;;4.10;;
58685;SDS011;44465;53.206;-6.106;2023-06-14T02:11:28;5.10;;;4.47;;
58685;SDS011;44465;53.206;-6.106;2023-06-14T02:13:54;4.97;;;4.47;;
58685;SDS011;44465;53.206;-6.106;2023-06-14T02:16:20;4.25;;;3.85;;
58685;SDS011;44465;53.206;-6.106;2023-06-14T02:18:47;4.50;;;4.10;;
58685;SDS011;44465;53.206;-6.106;2023-06-14T02:21:13;4.32;;;3.92;;
58685;SDS011;44465;53.206;-6.106;2023-06-14T02:23:39;4.80;;;4.22;;
58685;SDS011;44465;53.206;-6.106;2023-06-14T02:26:05;4.50;;;4.10;;
58685;SDS011;44465;53.206;-6.106;2023-06-14T02:28:33;4.65;;;4.22;;
58685;SDS011;44465;53.206;-6.106;2023-06-14T02:31:00;4.80;;;4.25;;
58685;SDS011;44465;53.206;-6.106;2023-06-14T02:33:26;4.22;;;3.83;;
58685;SDS011;44465;53.206;-6.106;2023-06-14T02:35:51;4.53;;;4.13;;
58685;SDS011;44465;53.206;-6.106;2023-06-14T02:38:17;5.45;;;4.32;;
58685;SDS011;44465;53.206;-6.106;2023-06-14T02:40:43;6.05;;;4.85;;
58685;SDS011;44465;53.206;-6.106;2023-06-14T02:43:08;4.75;;;4.07;;
58685;SDS011;44465;53.206;-6.106;2023-06-14T02:45:34;4.72;;;4.32;;
58685;SDS011;44465;53.206;-6.106;2023-06-14T02:47:59;5.05;;;4.57;;
58685;SDS011;44465;53.206;-6.106;2023-06-14T02:50:25;5.80;;;4.60;;
58685;SDS011;44465;53.206;-6.106;2023-06-14T02:52:51;4.57;;;4.18;;
58685;SDS011;44465;53.206;-6.106;2023-06-14T02:55:17;4.55;;;4.15;;
58685;SDS011;44465;53.206;-6.106;2023-06-14T02:57:43;4.90;;;4.43;;
58685;SDS011;44465;53.206;-6.106;2023-06-14T03:00:09;5.97;;;4.22;;
58685;SDS011;44465;53.206;-6.106;2023-06-14T03:02:38;4.80;;;4.00;;
58685;SDS011;44465;53.206;-6.106;2023-06-14T03:05:04;4.70;;;4.20;;
58685;SDS011;44465;53.206;-6.106;2023-06-14T03:09:58;4.68;;;4.22;;
58685;SDS011;44465;53.206;-6.106;2023-06-14T03:12:24;5.00;;;4.50;;
58685;SDS011;44465;53.206;-6.106;2023-06-14T03:14:50;5.00;;;4.60;;
58685;SDS011;44465;53.206;-6.106;2023-06-14T03:17:19;4.88;;;4.43;;
58685;SDS011;44465;53.206;-6.106;2023-06-14T03:19:45;5.22;;;4.05;;
58685;SDS011;44465;53.206;-6.106;2023-06-14T03:22:11;4.80;;;4.40;;
58685;SDS011;44465;53.206;-6.106;2023-06-14T03:24:38;4.93;;;4.28;;
58685;SDS011;44465;53.206;-6.106;2023-06-14T03:27:09;4.65;;;4.22;;
58685;SDS011;44465;53.206;-6.106;2023-06-14T03:29:36;5.27;;;4.80;;
58685;SDS011;44465;53.206;-6.106;2023-06-14T03:32:02;5.55;;;4.82;;
58685;SDS011;44465;53.206;-6.106;2023-06-14T03:34:40;4.85;;;4.35;;
58685;SDS011;44465;53.206;-6.106;2023-06-14T03:37:09;4.68;;;4.28;;
58685;SDS011;44465;53.206;-6.106;2023-06-14T03:39:35;6.00;;;4.53;;
58685;SDS011;44465;53.206;-6.106;2023-06-14T03:42:01;5.53;;;4.38;;
58685;SDS011;44465;53.206;-6.106;2023-06-14T03:44:27;4.78;;;4.20;;
58685;SDS011;44465;53.206;-6.106;2023-06-14T03:46:53;4.93;;;4.45;;
58685;SDS011;44465;53.206;-6.106;2023-06-14T03:49:18;4.75;;;4.20;;
58685;SDS011;44465;53.206;-6.106;2023-06-14T03:51:44;4.57;;;4.10;;
58685;SDS011;44465;53.206;-6.106;2023-06-14T03:54:11;5.13;;;4.60;;
58685;SDS011;44465;53.206;-6.106;2023-06-14T03:56:37;4.57;;;4.18;;
58685;SDS011;44465;53.206;-6.106;2023-06-14T03:59:03;4.43;;;4.03;;
58685;SDS011;44465;53.206;-6.106;2023-06-14T04:01:29;4.68;;;4.20;;
58685;SDS011;44465;53.206;-6.106;2023-06-14T04:03:57;4.53;;;4.13;;
58685;SDS011;44465;53.206;-6.106;2023-06-14T04:06:24;4.80;;;4.40;;
58685;SDS011;44465;53.206;-6.106;2023-06-14T04:08:58;4.82;;;4.43;;
58685;SDS011;44465;53.206;-6.106;2023-06-14T04:11:27;4.65;;;4.13;;
58685;SDS011;44465;53.206;-6.106;2023-06-14T04:13:53;5.00;;;4.50;;
58685;SDS011;44465;53.206;-6.106;2023-06-14T04:16:19;4.90;;;4.40;;
58685;SDS011;44465;53.206;-6.106;2023-06-14T04:18:44;4.70;;;4.30;;
58685;SDS011;44465;53.206;-6.106;2023-06-14T04:21:11;4.63;;;4.20;;
58685;SDS011;44465;53.206;-6.106;2023-06-14T04:23:37;5.05;;;4.57;;
58685;SDS011;44465;53.206;-6.106;2023-06-14T04:26:03;5.20;;;4.70;;
58685;SDS011;44465;53.206;-6.106;2023-06-14T04:28:29;5.10;;;4.60;;
58685;SDS011;44465;53.206;-6.106;2023-06-14T04:30:57;4.57;;;4.18;;
58685;SDS011;44465;53.206;-6.106;2023-06-14T04:33:27;4.82;;;4.20;;
58685;SDS011;44465;53.206;-6.106;2023-06-14T04:35:53;5.00;;;4.20;;
58685;SDS011;44465;53.206;-6.106;2023-06-14T04:38:22;4.78;;;4.18;;
58685;SDS011;44465;53.206;-6.106;2023-06-14T04:40:51;4.60;;;4.20;;
58685;SDS011;44465;53.206;-6.106;2023-06-14T04:43:18;4.67;;;4.27;;
58685;SDS011;44465;53.206;-6.106;2023-06-14T04:45:50;4.90;;;4.40;;
58685;SDS011;44465;53.206;-6.106;2023-06-14T04:48:17;5.57;;;5.03;;
58685;SDS011;44465;53.206;-6.106;2023-06-14T04:50:47;4.82;;;4.38;;
58685;SDS011;44465;53.206;-6.106;2023-06-14T04:53:12;5.10;;;4.60;;
58685;SDS011;44465;53.206;-6.106;2023-06-14T04:55:38;4.97;;;4.47;;
58685;SDS011;44465;53.206;-6.106;2023-06-14T04:58:04;4.78;;;4.35;;
58685;SDS011;44465;53.206;-6.106;2023-06-14T05:00:30;5.72;;;4.35;;
58685;SDS011;44465;53.206;-6.106;2023-06-14T05:02:55;4.68;;;4.00;;
58685;SDS011;44465;53.206;-6.106;2023-06-14T05:05:22;4.15;;;3.75;;
58685;SDS011;44465;53.206;-6.106;2023-06-14T05:07:49;4.47;;;4.07;;
58685;SDS011;44465;53.206;-6.106;2023-06-14T05:10:15;4.85;;;4.35;;
58685;SDS011;44465;53.206;-6.106;2023-06-14T05:12:41;4.57;;;4.13;;
58685;SDS011;44465;53.206;-6.106;2023-06-14T05:15:09;4.53;;;4.13;;
58685;SDS011;44465;53.206;-6.106;2023-06-14T05:17:35;6.13;;;4.70;;
58685;SDS011;44465;53.206;-6.106;2023-06-14T05:20:01;4.78;;;4.22;;
58685;SDS011;44465;53.206;-6.106;2023-06-14T05:22:27;5.93;;;4.68;;
58685;SDS011;44465;53.206;-6.106;2023-06-14T05:24:52;5.82;;;4.55;;
58685;SDS011;44465;53.206;-6.106;2023-06-14T05:27:18;4.78;;;4.35;;
58685;SDS011;44465;53.206;-6.106;2023-06-14T05:29:43;4.80;;;4.40;;
58685;SDS011;44465;53.206;-6.106;2023-06-14T05:32:09;4.45;;;4.05;;
58685;SDS011;44465;53.206;-6.106;2023-06-14T05:34:35;4.72;;;4.07;;
58685;SDS011;44465;53.206;-6.106;2023-06-14T05:37:00;5.45;;;4.60;;
58685;SDS011;44465;53.206;-6.106;2023-06-14T05:39:25;4.43;;;4.03;;
58685;SDS011;44465;53.206;-6.106;2023-06-14T05:41:51;5.07;;;4.55;;
58685;SDS011;44465;53.206;-6.106;2023-06-14T05:44:16;5.55;;;4.45;;
58685;SDS011;44465;53.206;-6.106;2023-06-14T05:46:42;5.75;;;4.70;;
58685;SDS011;44465;53.206;-6.106;2023-06-14T05:49:08;4.70;;;4.30;;
58685;SDS011;44465;53.206;-6.106;2023-06-14T05:51:34;4.72;;;4.25;;
58685;SDS011;44465;53.206;-6.106;2023-06-14T05:54:00;4.60;;;4.13;;
58685;SDS011;44465;53.206;-6.106;2023-06-14T05:56:26;5.70;;;4.70;;
58685;SDS011;44465;53.206;-6.106;2023-06-14T05:58:51;4.70;;;4.30;;
58685;SDS011;44465;53.206;-6.106;2023-06-14T06:01:17;5.82;;;4.60;;
58685;SDS011;44465;53.206;-6.106;2023-06-14T06:03:43;4.68;;;4.28;;
58685;SDS011;44465;53.206;-6.106;2023-06-14T06:06:11;5.40;;;4.10;;
58685;SDS011;44465;53.206;-6.106;2023-06-14T06:08:37;4.90;;;4.47;;
58685;SDS011;44465;53.206;-6.106;2023-06-14T06:11:03;5.43;;;4.50;;
58685;SDS011;44465;53.206;-6.106;2023-06-14T06:13:29;4.85;;;4.25;;
58685;SDS011;44465;53.206;-6.106;2023-06-14T06:15:54;4.90;;;4.30;;
58685;SDS011;44465;53.206;-6.106;2023-06-14T06:18:21;5.15;;;4.18;;
58685;SDS011;44465;53.206;-6.106;2023-06-14T06:20:46;5.43;;;4.47;;
58685;SDS011;44465;53.206;-6.106;2023-06-14T06:23:12;4.40;;;4.00;;
58685;SDS011;44465;53.206;-6.106;2023-06-14T06:25:38;4.50;;;4.03;;
58685;SDS011;44465;53.206;-6.106;2023-06-14T06:28:03;4.70;;;4.30;;
58685;SDS011;44465;53.206;-6.106;2023-06-14T06:30:29;5.03;;;4.35;;
58685;SDS011;44465;53.206;-6.106;2023-06-14T06:32:54;4.40;;;4.00;;
58685;SDS011;44465;53.206;-6.106;2023-06-14T06:35:20;5.03;;;4.30;;
58685;SDS011;44465;53.206;-6.106;2023-06-14T06:37:46;4.45;;;4.00;;
58685;SDS011;44465;53.206;-6.106;2023-06-14T06:40:11;5.03;;;4.07;;
58685;SDS011;44465;53.206;-6.106;2023-06-14T06:42:37;4.95;;;4.47;;
58685;SDS011;44465;53.206;-6.106;2023-06-14T06:45:04;6.13;;;4.47;;
58685;SDS011;44465;53.206;-6.106;2023-06-14T06:47:31;8.27;;;4.33;;
58685;SDS011;44465;53.206;-6.106;2023-06-14T06:49:56;10.23;;;4.50;;
58685;SDS011;44465;53.206;-6.106;2023-06-14T06:52:22;8.93;;;4.55;;
58685;SDS011;44465;53.206;-6.106;2023-06-14T06:54:47;8.32;;;4.45;;
58685;SDS011;44465;53.206;-6.106;2023-06-14T06:57:14;5.00;;;4.50;;
58685;SDS011;44465;53.206;-6.106;2023-06-14T06:59:39;4.40;;;4.00;;
58685;SDS011;44465;53.206;-6.106;2023-06-14T07:02:05;6.70;;;4.20;;
58685;SDS011;44465;53.206;-6.106;2023-06-14T07:04:31;5.00;;;4.35;;
58685;SDS011;44465;53.206;-6.106;2023-06-14T07:06:56;5.25;;;4.00;;
58685;SDS011;44465;53.206;-6.106;2023-06-14T07:09:22;7.03;;;4.43;;
58685;SDS011;44465;53.206;-6.106;2023-06-14T07:11:49;8.93;;;4.10;;
58685;SDS011;44465;53.206;-6.106;2023-06-14T07:14:14;4.93;;;4.22;;
58685;SDS011;44465;53.206;-6.106;2023-06-14T07:16:40;4.47;;;3.80;;
58685;SDS011;44465;53.206;-6.106;2023-06-14T07:19:06;8.88;;;4.65;;
58685;SDS011;44465;53.206;-6.106;2023-06-14T07:21:31;13.70;;;5.55;;
58685;SDS011;44465;53.206;-6.106;2023-06-14T07:23:57;12.38;;;5.05;;
58685;SDS011;44465;53.206;-6.106;2023-06-14T07:26:22;9.98;;;4.47;;
58685;SDS011;44465;53.206;-6.106;2023-06-14T07:28:48;9.00;;;4.95;;
58685;SDS011;44465;53.206;-6.106;2023-06-14T07:31:14;5.57;;;4.20;;
58685;SDS011;44465;53.206;-6.106;2023-06-14T07:33:40;9.32;;;4.75;;
58685;SDS011;44465;53.206;-6.106;2023-06-14T07:36:06;9.38;;;5.07;;
58685;SDS011;44465;53.206;-6.106;2023-06-14T07:38:32;7.35;;;4.57;;
58685;SDS011;44465;53.206;-6.106;2023-06-14T07:40:57;5.40;;;4.28;;
58685;SDS011;44465;53.206;-6.106;2023-06-14T07:43:23;6.05;;;4.63;;
58685;SDS011;44465;53.206;-6.106;2023-06-14T07:45:48;8.10;;;4.82;;
58685;SDS011;44465;53.206;-6.106;2023-06-14T07:48:14;4.97;;;4.28;;
58685;SDS011;44465;53.206;-6.106;2023-06-14T07:50:40;8.98;;;4.50;;
58685;SDS011;44465;53.206;-6.106;2023-06-14T07:53:06;6.25;;;4.20;;
58685;SDS011;44465;53.206;-6.106;2023-06-14T07:55:31;5.63;;;4.18;;
58685;SDS011;44465;53.206;-6.106;2023-06-14T07:57:58;7.38;;;4.53;;
58685;SDS011;44465;53.206;-6.106;2023-06-14T08:00:24;7.72;;;4.47;;
58685;SDS011;44465;53.206;-6.106;2023-06-14T08:02:49;5.90;;;4.07;;
58685;SDS011;44465;53.206;-6.106;2023-06-14T08:05:17;6.00;;;3.95;;
58685;SDS011;44465;53.206;-6.106;2023-06-14T08:07:42;5.78;;;4.22;;
58685;SDS011;44465;53.206;-6.106;2023-06-14T08:10:08;6.97;;;4.32;;
58685;SDS011;44465;53.206;-6.106;2023-06-14T08:12:34;6.35;;;4.10;;
58685;SDS011;44465;53.206;-6.106;2023-06-14T08:15:00;4.70;;;4.10;;
58685;SDS011;44465;53.206;-6.106;2023-06-14T08:17:26;6.95;;;4.32;;
58685;SDS011;44465;53.206;-6.106;2023-06-14T08:19:52;8.05;;;4.40;;
58685;SDS011;44465;53.206;-6.106;2023-06-14T08:22:20;4.13;;;3.67;;
58685;SDS011;44465;53.206;-6.106;2023-06-14T08:24:46;5.60;;;4.97;;
58685;SDS011;44465;53.206;-6.106;2023-06-14T08:27:12;5.40;;;3.78;;
58685;SDS011;44465;53.206;-6.106;2023-06-14T08:29:38;6.80;;;4.10;;
58685;SDS011;44465;53.206;-6.106;2023-06-14T08:32:05;6.35;;;4.25;;
58685;SDS011;44465;53.206;-6.106;2023-06-14T08:34:31;4.60;;;3.85;;
58685;SDS011;44465;53.206;-6.106;2023-06-14T08:36:57;5.07;;;3.80;;
58685;SDS011;44465;53.206;-6.106;2023-06-14T08:39:22;4.13;;;3.72;;
58685;SDS011;44465;53.206;-6.106;2023-06-14T08:41:48;4.45;;;3.92;;
58685;SDS011;44465;53.206;-6.106;2023-06-14T08:44:17;4.78;;;4.18;;
58685;SDS011;44465;53.206;-6.106;2023-06-14T08:46:42;4.95;;;3.70;;
58685;SDS011;44465;53.206;-6.106;2023-06-14T08:49:10;5.28;;;4.10;;
58685;SDS011;44465;53.206;-6.106;2023-06-14T08:51:37;6.93;;;4.50;;
58685;SDS011;44465;53.206;-6.106;2023-06-14T08:54:03;4.55;;;4.10;;
58685;SDS011;44465;53.206;-6.106;2023-06-14T08:56:32;5.60;;;4.35;;
58685;SDS011;44465;53.206;-6.106;2023-06-14T08:58:59;4.15;;;3.75;;
58685;SDS011;44465;53.206;-6.106;2023-06-14T09:01:30;4.78;;;4.03;;
58685;SDS011;44465;53.206;-6.106;2023-06-14T09:03:59;5.70;;;4.18;;
58685;SDS011;44465;53.206;-6.106;2023-06-14T09:06:25;4.90;;;4.00;;
58685;SDS011;44465;53.206;-6.106;2023-06-14T09:08:50;4.13;;;3.70;;
58685;SDS011;44465;53.206;-6.106;2023-06-14T09:11:17;5.05;;;3.95;;
58685;SDS011;44465;53.206;-6.106;2023-06-14T09:13:47;5.30;;;4.00;;
58685;SDS011;44465;53.206;-6.106;2023-06-14T09:16:13;4.70;;;3.72;;
58685;SDS011;44465;53.206;-6.106;2023-06-14T09:18:40;5.65;;;3.85;;
58685;SDS011;44465;53.206;-6.106;2023-06-14T09:21:10;4.88;;;4.15;;
58685;SDS011;44465;53.206;-6.106;2023-06-14T09:23:37;3.78;;;3.47;;
58685;SDS011;44465;53.206;-6.106;2023-06-14T09:28:33;4.45;;;3.83;;
58685;SDS011;44465;53.206;-6.106;2023-06-14T09:31:00;4.00;;;3.47;;
58685;SDS011;44465;53.206;-6.106;2023-06-14T09:33:26;4.53;;;3.35;;
58685;SDS011;44465;53.206;-6.106;2023-06-14T09:35:53;4.07;;;3.67;;
58685;SDS011;44465;53.206;-6.106;2023-06-14T09:38:19;4.03;;;3.65;;
58685;SDS011;44465;53.206;-6.106;2023-06-14T09:40:45;3.88;;;3.47;;
58685;SDS011;44465;53.206;-6.106;2023-06-14T09:43:11;4.07;;;3.67;;
58685;SDS011;44465;53.206;-6.106;2023-06-14T09:45:37;4.15;;;3.58;;
58685;SDS011;44465;53.206;-6.106;2023-06-14T09:48:05;4.70;;;3.65;;
58685;SDS011;44465;53.206;-6.106;2023-06-14T09:50:33;5.00;;;3.65;;
58685;SDS011;44465;53.206;-6.106;2023-06-14T09:53:02;4.68;;;3.78;;
58685;SDS011;44465;53.206;-6.106;2023-06-14T09:55:30;4.30;;;3.42;;
58685;SDS011;44465;53.206;-6.106;2023-06-14T09:57:59;4.22;;;3.42;;
58685;SDS011;44465;53.206;-6.106;2023-06-14T10:00:29;3.97;;;3.58;;
58685;SDS011;44465;53.206;-6.106;2023-06-14T10:02:59;3.75;;;3.45;;
58685;SDS011;44465;53.206;-6.106;2023-06-14T10:05:28;3.88;;;3.47;;
58685;SDS011;44465;53.206;-6.106;2023-06-14T10:08:02;4.07;;;3.67;;
58685;SDS011;44465;53.206;-6.106;2023-06-14T10:10:30;3.72;;;3.33;;
58685;SDS011;44465;53.206;-6.106;2023-06-14T10:12:56;4.50;;;3.47;;
58685;SDS011;44465;53.206;-6.106;2023-06-14T10:23:29;3.92;;;3.33;;
58685;SDS011;44465;53.206;-6.106;2023-06-14T10:25:58;4.60;;;3.13;;
58685;SDS011;44465;53.206;-6.106;2023-06-14T10:28:25;3.10;;;2.90;;
58685;SDS011;44465;53.206;-6.106;2023-06-14T10:31:04;3.25;;;2.95;;
58685;SDS011;44465;53.206;-6.106;2023-06-14T10:33:30;4.07;;;3.05;;
58685;SDS011;44465;53.206;-6.106;2023-06-14T10:36:07;3.20;;;2.90;;
58685;SDS011;44465;53.206;-6.106;2023-06-14T10:41:29;3.65;;;3.10;;
58685;SDS011;44465;53.206;-6.106;2023-06-14T10:47:39;3.90;;;2.90;;
58685;SDS011;44465;53.206;-6.106;2023-06-14T10:49:50;3.83;;;3.40;;
58685;SDS011;44465;53.206;-6.106;2023-06-14T10:55:05;4.38;;;3.15;;
58685;SDS011;44465;53.206;-6.106;2023-06-14T10:57:40;4.10;;;3.60;;
58685;SDS011;44465;53.206;-6.106;2023-06-14T11:00:06;4.10;;;2.83;;
58685;SDS011;44465;53.206;-6.106;2023-06-14T11:02:51;3.03;;;2.72;;
58685;SDS011;44465;53.206;-6.106;2023-06-14T11:05:41;3.42;;;3.13;;
58685;SDS011;44465;53.206;-6.106;2023-06-14T11:11:12;3.58;;;3.20;;
58685;SDS011;44465;53.206;-6.106;2023-06-14T11:13:39;3.65;;;3.33;;
58685;SDS011;44465;53.206;-6.106;2023-06-14T11:16:13;4.82;;;3.28;;
58685;SDS011;44465;53.206;-6.106;2023-06-14T11:18:40;3.85;;;2.88;;
58685;SDS011;44465;53.206;-6.106;2023-06-14T11:21:06;4.63;;;3.00;;
58685;SDS011;44465;53.206;-6.106;2023-06-14T11:23:31;4.05;;;3.35;;
58685;SDS011;44465;53.206;-6.106;2023-06-14T11:25:57;3.70;;;3.25;;
58685;SDS011;44465;53.206;-6.106;2023-06-14T11:28:22;4.63;;;3.10;;
58685;SDS011;44465;53.206;-6.106;2023-06-14T11:31:01;3.20;;;2.90;;
58685;SDS011;44465;53.206;-6.106;2023-06-14T11:33:28;3.78;;;2.58;;
58685;SDS011;44465;53.206;-6.106;2023-06-14T11:35:54;3.33;;;2.78;;
58685;SDS011;44465;53.206;-6.106;2023-06-14T11:38:19;3.50;;;3.20;;
58685;SDS011;44465;53.206;-6.106;2023-06-14T11:40:45;3.28;;;2.97;;
58685;SDS011;44465;53.206;-6.106;2023-06-14T11:43:10;3.30;;;3.00;;
58685;SDS011;44465;53.206;-6.106;2023-06-14T11:45:37;3.88;;;2.90;;
58685;SDS011;44465;53.206;-6.106;2023-06-14T11:48:03;3.53;;;2.88;;
58685;SDS011;44465;53.206;-6.106;2023-06-14T11:50:28;3.92;;;2.78;;
58685;SDS011;44465;53.206;-6.106;2023-06-14T11:52:57;4.05;;;3.15;;
58685;SDS011;44465;53.206;-6.106;2023-06-14T11:55:36;2.97;;;2.60;;
58685;SDS011;44465;53.206;-6.106;2023-06-14T11:58:03;3.80;;;2.97;;
58685;SDS011;44465;53.206;-6.106;2023-06-14T12:00:28;3.72;;;3.20;;
58685;SDS011;44465;53.206;-6.106;2023-06-14T12:02:54;4.10;;;2.88;;
58685;SDS011;44465;53.206;-6.106;2023-06-14T12:05:23;3.97;;;2.80;;
58685;SDS011;44465;53.206;-6.106;2023-06-14T12:07:50;4.80;;;2.88;;
58685;SDS011;44465;53.206;-6.106;2023-06-14T12:10:24;3.92;;;2.90;;
58685;SDS011;44465;53.206;-6.106;2023-06-14T12:12:49;3.55;;;2.95;;
58685;SDS011;44465;53.206;-6.106;2023-06-14T12:15:15;3.47;;;3.17;;
58685;SDS011;44465;53.206;-6.106;2023-06-14T12:17:42;4.03;;;3.00;;
58685;SDS011;44465;53.206;-6.106;2023-06-14T12:22:50;4.20;;;3.00;;
58685;SDS011;44465;53.206;-6.106;2023-06-14T12:25:28;4.18;;;3.10;;
58685;SDS011;44465;53.206;-6.106;2023-06-14T12:27:58;3.58;;;3.10;;
58685;SDS011;44465;53.206;-6.106;2023-06-14T12:30:24;3.40;;;2.88;;
58685;SDS011;44465;53.206;-6.106;2023-06-14T12:32:50;3.80;;;2.90;;
58685;SDS011;44465;53.206;-6.106;2023-06-14T12:35:17;4.53;;;3.15;;
58685;SDS011;44465;53.206;-6.106;2023-06-14T12:37:44;3.67;;;3.20;;
58685;SDS011;44465;53.206;-6.106;2023-06-14T12:40:11;2.95;;;2.75;;
58685;SDS011;44465;53.206;-6.106;2023-06-14T12:42:37;4.63;;;3.08;;
58685;SDS011;44465;53.206;-6.106;2023-06-14T12:45:02;3.72;;;2.78;;
58685;SDS011;44465;53.206;-6.106;2023-06-14T12:47:28;4.22;;;2.78;;
58685;SDS011;44465;53.206;-6.106;2023-06-14T12:49:53;3.90;;;2.72;;
58685;SDS011;44465;53.206;-6.106;2023-06-14T12:52:19;3.50;;;2.50;;
58685;SDS011;44465;53.206;-6.106;2023-06-14T12:54:44;3.83;;;2.70;;
58685;SDS011;44465;53.206;-6.106;2023-06-14T12:57:10;3.50;;;3.20;;
58685;SDS011;44465;53.206;-6.106;2023-06-14T12:59:35;2.45;;;2.25;;
58685;SDS011;44465;53.206;-6.106;2023-06-14T13:02:14;7.20;;;3.25;;
58685;SDS011;44465;53.206;-6.106;2023-06-14T13:04:41;4.28;;;2.97;;
58685;SDS011;44465;53.206;-6.106;2023-06-14T13:07:06;4.30;;;3.08;;
58685;SDS011;44465;53.206;-6.106;2023-06-14T13:09:32;4.03;;;3.08;;
58685;SDS011;44465;53.206;-6.106;2023-06-14T13:11:58;5.20;;;3.17;;
58685;SDS011;44465;53.206;-6.106;2023-06-14T13:14:23;3.35;;;2.95;;
58685;SDS011;44465;53.206;-6.106;2023-06-14T13:16:49;5.72;;;3.33;;
58685;SDS011;44465;53.206;-6.106;2023-06-14T13:19:15;3.45;;;2.90;;
58685;SDS011;44465;53.206;-6.106;2023-06-14T13:21:40;3.40;;;2.90;;
58685;SDS011;44465;53.206;-6.106;2023-06-14T13:24:06;3.47;;;2.88;;
58685;SDS011;44465;53.206;-6.106;2023-06-14T13:26:32;3.28;;;2.97;;
58685;SDS011;44465;53.206;-6.106;2023-06-14T13:28:58;3.35;;;2.92;;
58685;SDS011;44465;53.206;-6.106;2023-06-14T13:31:24;5.22;;;3.08;;
58685;SDS011;44465;53.206;-6.106;2023-06-14T13:33:50;4.07;;;3.00;;
58685;SDS011;44465;53.206;-6.106;2023-06-14T13:36:15;3.75;;;3.17;;
58685;SDS011;44465;53.206;-6.106;2023-06-14T13:38:41;3.22;;;2.92;;
58685;SDS011;44465;53.206;-6.106;2023-06-14T13:41:06;4.18;;;3.38;;
58685;SDS011;44465;53.206;-6.106;2023-06-14T13:43:32;5.43;;;3.20;;
58685;SDS011;44465;53.206;-6.106;2023-06-14T13:45:57;3.42;;;3.00;;
58685;SDS011;44465;53.206;-6.106;2023-06-14T13:48:23;4.03;;;3.17;;
58685;SDS011;44465;53.206;-6.106;2023-06-14T13:50:49;4.70;;;2.97;;
58685;SDS011;44465;53.206;-6.106;2023-06-14T13:53:14;3.15;;;2.85;;
58685;SDS011;44465;53.206;-6.106;2023-06-14T13:55:40;4.03;;;2.72;;
58685;SDS011;44465;53.206;-6.106;2023-06-14T13:58:05;4.47;;;2.90;;
58685;SDS011;44465;53.206;-6.106;2023-06-14T14:00:31;3.17;;;2.88;;
58685;SDS011;44465;53.206;-6.106;2023-06-14T14:02:57;4.10;;;3.00;;
58685;SDS011;44465;53.206;-6.106;2023-06-14T14:05:25;3.50;;;2.95;;
58685;SDS011;44465;53.206;-6.106;2023-06-14T14:07:54;5.57;;;3.10;;
58685;SDS011;44465;53.206;-6.106;2023-06-14T14:10:22;3.15;;;2.83;;
58685;SDS011;44465;53.206;-6.106;2023-06-14T14:12:48;3.45;;;3.08;;
58685;SDS011;44465;53.206;-6.106;2023-06-14T14:15:14;3.95;;;2.85;;
58685;SDS011;44465;53.206;-6.106;2023-06-14T14:17:40;3.83;;;3.13;;
58685;SDS011;44465;53.206;-6.106;2023-06-14T14:20:06;4.05;;;2.60;;
58685;SDS011;44465;53.206;-6.106;2023-06-14T14:22:32;3.28;;;2.75;;
58685;SDS011;44465;53.206;-6.106;2023-06-14T14:24:58;4.65;;;2.90;;
58685;SDS011;44465;53.206;-6.106;2023-06-14T14:27:24;4.10;;;2.85;;
58685;SDS011;44465;53.206;-6.106;2023-06-14T14:29:50;3.83;;;3.00;;
58685;SDS011;44465;53.206;-6.106;2023-06-14T14:32:15;3.78;;;3.00;;
58685;SDS011;44465;53.206;-6.106;2023-06-14T14:34:41;3.72;;;3.13;;
58685;SDS011;44465;53.206;-6.106;2023-06-14T14:37:06;4.53;;;2.97;;
58685;SDS011;44465;53.206;-6.106;2023-06-14T14:39:32;3.97;;;2.97;;
58685;SDS011;44465;53.206;-6.106;2023-06-14T14:41:57;3.65;;;3.00;;
58685;SDS011;44465;53.206;-6.106;2023-06-14T14:44:23;4.15;;;2.80;;
58685;SDS011;44465;53.206;-6.106;2023-06-14T14:46:48;5.07;;;3.30;;
58685;SDS011;44465;53.206;-6.106;2023-06-14T14:49:14;3.47;;;2.58;;
58685;SDS011;44465;53.206;-6.106;2023-06-14T14:51:39;3.95;;;2.95;;
58685;SDS011;44465;53.206;-6.106;2023-06-14T14:54:05;3.65;;;2.85;;
58685;SDS011;44465;53.206;-6.106;2023-06-14T14:56:31;4.95;;;3.10;;
58685;SDS011;44465;53.206;-6.106;2023-06-14T14:58:57;3.58;;;2.65;;
58685;SDS011;44465;53.206;-6.106;2023-06-14T15:01:23;3.42;;;2.75;;
58685;SDS011;44465;53.206;-6.106;2023-06-14T15:03:48;3.30;;;2.80;;
58685;SDS011;44465;53.206;-6.106;2023-06-14T15:06:14;3.88;;;2.80;;
58685;SDS011;44465;53.206;-6.106;2023-06-14T15:08:40;3.28;;;2.95;;